createdAt,value
2023-04-12T00:01:41.466Z,44.86
2023-04-12T00:04:10.202Z,44.98
2023-04-12T00:06:38.298Z,44.41
2023-04-12T00:09:08.597Z,45.40
2023-04-12T00:11:36.510Z,44.81
2023-04-12T00:14:04.338Z,45.57
2023-04-12T00:16:32.541Z,45.40
2023-04-12T00:19:01.827Z,45.62
2023-04-12T00:21:29.879Z,45.35
2023-04-12T00:23:57.877Z,45.84
2023-04-12T00:26:27.307Z,45.58
2023-04-12T00:28:55.097Z,45.84
2023-04-12T00:31:23.017Z,46.12
2023-04-12T00:33:50.888Z,46.01
2023-04-12T00:36:18.807Z,46.13
2023-04-12T00:38:46.785Z,46.04
2023-04-12T00:41:15.358Z,46.66
2023-04-12T00:43:44.684Z,46.37
2023-04-12T00:46:12.990Z,46.43
2023-04-12T00:48:41.169Z,46.53
2023-04-12T00:51:09.347Z,47.08
2023-04-12T00:53:39.275Z,46.75
2023-04-12T00:56:11.878Z,47.25
2023-04-12T00:58:40.608Z,47.28
2023-04-12T01:01:10.577Z,47.02
2023-04-12T01:03:43.358Z,47.34
2023-04-12T01:06:15.007Z,46.67
2023-04-12T01:08:55.847Z,47.41
2023-04-12T01:11:32.269Z,47.11
2023-04-12T01:14:08.179Z,46.88
2023-04-12T01:16:44.393Z,47.49
2023-04-12T01:19:30.976Z,47.59
2023-04-12T01:22:14.509Z,47.44
2023-04-12T01:24:52.945Z,47.29
2023-04-12T01:27:35.705Z,47.69
2023-04-12T01:30:07.463Z,47.71
2023-04-12T01:32:37.788Z,48.07
2023-04-12T01:35:09.170Z,47.56
2023-04-12T01:37:37.869Z,47.80
2023-04-12T01:40:09.144Z,47.90
2023-04-12T01:42:38.356Z,48.22
2023-04-12T01:45:07.641Z,47.76
2023-04-12T01:47:35.751Z,47.83
2023-04-12T01:50:13.113Z,48.29
2023-04-12T01:52:46.797Z,48.08
2023-04-12T01:55:16.154Z,48.02
2023-04-12T01:57:48.428Z,48.39
2023-04-12T02:00:18.058Z,48.17
2023-04-12T02:02:46.070Z,48.34
2023-04-12T02:05:14.157Z,48.12
2023-04-12T02:07:43.035Z,48.55
2023-04-12T02:10:14.634Z,48.46
2023-04-12T02:12:42.417Z,48.99
2023-04-12T02:15:12.826Z,48.79
2023-04-12T02:17:41.021Z,48.79
2023-04-12T02:20:11.963Z,48.60
2023-04-12T02:22:39.865Z,48.91
2023-04-12T02:25:08.161Z,48.91
2023-04-12T02:27:35.958Z,49.13
2023-04-12T02:30:04.620Z,49.21
2023-04-12T02:32:45.089Z,49.32
2023-04-12T02:35:14.215Z,49.29
2023-04-12T02:37:44.126Z,49.13
2023-04-12T02:40:14.384Z,49.36
2023-04-12T02:42:42.504Z,49.47
2023-04-12T02:45:11.525Z,49.33
2023-04-12T02:47:41.712Z,49.26
2023-04-12T02:50:10.037Z,49.46
2023-04-12T02:52:38.171Z,49.58
2023-04-12T02:55:07.010Z,49.51
2023-04-12T02:57:35.269Z,49.68
2023-04-12T03:00:08.296Z,49.89
2023-04-12T03:02:36.925Z,49.86
2023-04-12T03:05:07.691Z,49.65
2023-04-12T03:07:36.167Z,49.73
2023-04-12T03:10:05.225Z,49.92
2023-04-12T03:12:33.065Z,49.96
2023-04-12T03:15:01.191Z,50.33
2023-04-12T03:17:29.083Z,50.09
2023-04-12T03:19:58.179Z,50.32
2023-04-12T03:22:27.418Z,50.36
2023-04-12T03:24:55.322Z,50.60
2023-04-12T03:27:23.177Z,50.63
2023-04-12T03:29:52.323Z,50.54
2023-04-12T03:32:20.777Z,51.01
2023-04-12T03:34:48.760Z,50.80
2023-04-12T03:37:16.666Z,51.02
2023-04-12T03:39:48.138Z,51.39
2023-04-12T03:42:29.943Z,51.32
2023-04-12T03:44:59.970Z,51.36
2023-04-12T03:47:28.089Z,51.80
2023-04-12T03:50:09.559Z,51.54
2023-04-12T03:52:39.596Z,51.62
2023-04-12T03:55:12.003Z,51.55
2023-04-12T03:57:40.040Z,51.67
2023-04-12T04:00:09.893Z,52.15
2023-04-12T04:02:38.677Z,51.85
2023-04-12T04:05:07.254Z,52.35
2023-04-12T04:07:36.781Z,52.12
2023-04-12T04:10:05.752Z,51.98
2023-04-12T04:12:35.124Z,52.21
2023-04-12T04:15:02.987Z,52.33
2023-04-12T04:17:30.808Z,52.76
2023-04-12T04:19:58.654Z,52.63
2023-04-12T04:22:26.548Z,53.05
2023-04-12T04:24:55.884Z,52.74
2023-04-12T04:27:23.888Z,53.23
2023-04-12T04:29:58.257Z,52.77
2023-04-12T04:32:26.908Z,52.76
2023-04-12T04:34:57.369Z,53.37
2023-04-12T04:37:25.807Z,53.80
2023-04-12T04:39:53.614Z,53.56
2023-04-12T04:42:21.563Z,53.79
2023-04-12T04:44:51.205Z,53.44
2023-04-12T04:47:22.334Z,53.92
2023-04-12T04:49:50.896Z,53.74
2023-04-12T04:52:19.718Z,54.27
2023-04-12T04:54:47.790Z,54.23
2023-04-12T04:57:15.819Z,54.34
2023-04-12T04:59:43.664Z,54.25
2023-04-12T05:02:12.133Z,53.89
2023-04-12T05:04:41.554Z,54.43
2023-04-12T05:07:09.538Z,54.92
2023-04-12T05:09:37.580Z,54.39
2023-04-12T05:12:05.968Z,54.95
2023-04-12T05:14:46.635Z,54.59
2023-04-12T05:17:16.048Z,54.61
2023-04-12T05:19:45.432Z,55.55
2023-04-12T05:22:14.650Z,55.17
2023-04-12T05:24:42.632Z,55.30
2023-04-12T05:27:10.651Z,55.84
2023-04-12T05:29:38.501Z,55.66
2023-04-12T05:32:06.542Z,55.85
2023-04-12T05:34:34.397Z,55.76
2023-04-12T05:37:06.613Z,55.92
2023-04-12T05:39:34.970Z,56.41
2023-04-12T05:42:02.778Z,56.27
2023-04-12T05:44:30.563Z,56.42
2023-04-12T05:46:58.426Z,56.35
2023-04-12T05:49:30.066Z,56.70
2023-04-12T05:51:58.393Z,56.60
2023-04-12T05:54:27.856Z,56.99
2023-04-12T05:56:57.205Z,57.32
2023-04-12T05:59:25.043Z,57.56
2023-04-12T06:01:52.903Z,57.05
2023-04-12T06:04:20.955Z,57.06
2023-04-12T06:06:49.862Z,57.21
2023-04-12T06:09:17.802Z,57.58
2023-04-12T06:11:46.912Z,57.20
2023-04-12T06:14:14.857Z,58.08
2023-04-12T06:16:42.909Z,57.47
2023-04-12T06:19:13.686Z,57.95
2023-04-12T06:21:41.771Z,57.69
2023-04-12T06:24:09.826Z,58.39
2023-04-12T06:26:40.009Z,57.76
2023-04-12T06:29:10.097Z,58.36
2023-04-12T06:31:38.534Z,58.85
2023-04-12T06:34:06.647Z,58.77
2023-04-12T06:36:34.964Z,58.35
2023-04-12T06:39:03.927Z,58.46
2023-04-12T06:41:32.056Z,59.03
2023-04-12T06:43:59.858Z,58.65
2023-04-12T06:46:30.045Z,59.01
2023-04-12T06:48:58.143Z,59.10
2023-04-12T06:51:26.212Z,59.19
2023-04-12T06:53:54.124Z,59.32
2023-04-12T06:56:22.287Z,59.39
2023-04-12T06:58:50.414Z,59.50
2023-04-12T07:01:19.281Z,59.70
2023-04-12T07:03:48.677Z,59.82
2023-04-12T07:06:25.055Z,59.71
2023-04-12T07:08:54.712Z,59.91
2023-04-12T07:11:24.003Z,59.95
2023-04-12T07:13:52.378Z,59.67
2023-04-12T07:16:20.500Z,59.58
2023-04-12T07:18:50.354Z,59.86
2023-04-12T07:21:18.606Z,60.06
2023-04-12T07:23:47.576Z,60.10
2023-04-12T07:26:15.570Z,60.07
2023-04-12T07:28:43.381Z,59.89
2023-04-12T07:31:11.406Z,60.28
2023-04-12T07:33:40.686Z,60.31
2023-04-12T07:36:12.762Z,60.34
2023-04-12T07:38:40.787Z,60.29
2023-04-12T07:41:08.940Z,60.12
2023-04-12T07:43:36.821Z,60.04
2023-04-12T07:46:08.603Z,60.38
2023-04-12T07:48:36.825Z,60.00
2023-04-12T07:51:05.405Z,60.46
2023-04-12T07:53:34.970Z,60.44
2023-04-12T07:56:05.082Z,60.61
2023-04-12T07:58:35.709Z,60.46
2023-04-12T08:01:03.742Z,60.20
2023-04-12T08:03:31.872Z,60.13
2023-04-12T08:06:00.498Z,60.51
2023-04-12T08:08:28.393Z,60.31
2023-04-12T08:10:57.587Z,60.67
2023-04-12T08:13:28.394Z,60.53
2023-04-12T08:15:56.388Z,60.58
2023-04-12T08:18:24.387Z,60.76
2023-04-12T08:20:52.225Z,60.75
2023-04-12T08:23:20.156Z,60.46
2023-04-12T08:25:48.013Z,60.67
2023-04-12T08:28:17.385Z,60.56
2023-04-12T08:30:45.279Z,60.57
2023-04-12T08:33:13.125Z,60.82
2023-04-12T08:35:41.169Z,60.75
2023-04-12T08:38:09.246Z,60.62
2023-04-12T08:40:38.182Z,60.87
2023-04-12T08:43:08.781Z,60.80
2023-04-12T08:45:39.194Z,60.64
2023-04-12T08:48:07.354Z,60.61
2023-04-12T08:50:35.552Z,60.74
2023-04-12T08:53:04.452Z,60.59
2023-04-12T08:55:32.412Z,60.79
2023-04-12T08:58:00.958Z,60.54
2023-04-12T09:00:40.554Z,60.75
2023-04-12T09:03:10.599Z,60.67
2023-04-12T09:05:38.645Z,60.75
2023-04-12T09:08:06.956Z,60.52
2023-04-12T09:10:37.088Z,60.48
2023-04-12T09:13:06.031Z,60.52
2023-04-12T09:15:35.900Z,60.50
2023-04-12T09:18:08.220Z,60.56
2023-04-12T09:20:37.010Z,60.58
2023-04-12T09:23:19.289Z,60.44
2023-04-12T09:25:48.553Z,60.40
2023-04-12T09:28:21.506Z,60.31
2023-04-12T09:30:51.814Z,60.23
2023-04-12T09:33:23.308Z,60.33
2023-04-12T09:35:51.557Z,60.11
2023-04-12T09:38:19.855Z,60.13
2023-04-12T09:40:48.672Z,60.19
2023-04-12T09:43:16.671Z,59.89
2023-04-12T09:45:47.373Z,59.98
2023-04-12T09:48:22.043Z,59.89
2023-04-12T09:50:50.055Z,60.10
2023-04-12T09:53:19.334Z,59.83
2023-04-12T09:55:49.903Z,60.10
2023-04-12T09:58:20.521Z,59.76
2023-04-12T10:00:48.936Z,59.68
2023-04-12T10:03:17.253Z,59.63
2023-04-12T10:05:46.908Z,59.24
2023-04-12T10:08:15.633Z,59.42
2023-04-12T10:10:45.845Z,59.01
2023-04-12T10:13:18.455Z,58.98
2023-04-12T10:15:51.148Z,58.94
2023-04-12T10:18:19.720Z,59.07
2023-04-12T10:20:48.966Z,58.90
2023-04-12T10:23:17.844Z,58.83
2023-04-12T10:25:48.041Z,58.68
2023-04-12T10:28:17.477Z,58.60
2023-04-12T10:30:48.201Z,58.67
2023-04-12T10:33:18.000Z,58.37
2023-04-12T10:36:00.736Z,58.16
2023-04-12T10:38:34.554Z,58.11
2023-04-12T10:41:25.158Z,57.80
2023-04-12T10:43:53.797Z,57.55
2023-04-12T10:46:58.546Z,57.54
2023-04-12T10:49:26.799Z,57.65
2023-04-12T10:52:18.607Z,57.34
2023-04-12T10:54:47.089Z,57.45
2023-04-12T10:57:45.412Z,57.29
2023-04-12T11:00:14.439Z,56.79
2023-04-12T11:03:09.872Z,56.81
2023-04-12T11:06:12.651Z,57.00
2023-04-12T11:08:51.064Z,56.42
2023-04-12T11:11:22.649Z,56.38
2023-04-12T11:13:56.263Z,55.99
2023-04-12T11:16:24.328Z,56.01
2023-04-12T11:18:55.448Z,55.98
2023-04-12T11:21:24.135Z,55.64
2023-04-12T11:23:56.483Z,55.55
2023-04-12T11:26:25.409Z,55.45
2023-04-12T11:28:55.964Z,55.20
2023-04-12T11:31:24.516Z,55.25
2023-04-12T11:33:52.410Z,55.22
2023-04-12T11:36:20.402Z,55.16
2023-04-12T11:38:50.263Z,55.07
2023-04-12T11:41:19.831Z,54.99
2023-04-12T11:43:49.526Z,54.92
2023-04-12T11:46:18.441Z,54.94
2023-04-12T11:48:47.459Z,54.93
2023-04-12T11:51:22.387Z,54.81
2023-04-12T11:53:54.490Z,54.99
2023-04-12T11:56:24.211Z,55.07
2023-04-12T11:58:52.845Z,54.82
2023-04-12T12:01:21.959Z,54.80
2023-04-12T12:03:51.130Z,55.04
2023-04-12T12:06:19.960Z,54.87
2023-04-12T12:08:49.800Z,54.62
2023-04-12T12:11:17.717Z,54.45
2023-04-12T12:13:48.569Z,54.47
2023-04-12T12:16:17.700Z,54.45
2023-04-12T12:18:46.811Z,54.38
2023-04-12T12:21:16.021Z,54.09
2023-04-12T12:23:46.278Z,54.05
2023-04-12T12:26:21.857Z,53.87
2023-04-12T12:28:56.348Z,53.97
2023-04-12T12:31:28.059Z,53.72
2023-04-12T12:33:57.851Z,53.83
2023-04-12T12:36:32.912Z,53.61
2023-04-12T12:39:07.472Z,53.40
2023-04-12T12:41:35.591Z,53.15
2023-04-12T12:44:04.902Z,53.22
2023-04-12T12:46:50.710Z,52.93
2023-04-12T12:49:20.397Z,52.93
2023-04-12T12:51:48.490Z,52.93
2023-04-12T12:54:32.299Z,52.75
2023-04-12T12:57:06.614Z,52.77
2023-04-12T12:59:35.993Z,52.44
2023-04-12T13:02:04.017Z,52.18
2023-04-12T13:04:32.738Z,51.97
2023-04-12T13:07:00.677Z,52.02
2023-04-12T13:09:28.613Z,51.80
2023-04-12T13:11:57.326Z,51.59
2023-04-12T13:14:25.240Z,51.69
2023-04-12T13:16:54.598Z,51.33
2023-04-12T13:19:24.334Z,51.43
2023-04-12T13:21:53.302Z,51.29
2023-04-12T13:24:21.407Z,51.21
2023-04-12T13:26:49.550Z,51.00
2023-04-12T13:29:17.495Z,50.93
2023-04-12T13:31:45.427Z,50.73
2023-04-12T13:34:14.769Z,50.71
2023-04-12T13:36:44.768Z,50.55
2023-04-12T13:39:12.861Z,50.42
2023-04-12T13:41:41.018Z,50.33
2023-04-12T13:44:11.102Z,50.28
2023-04-12T13:46:39.015Z,49.87
2023-04-12T13:49:07.194Z,49.74
2023-04-12T13:51:36.614Z,49.59
2023-04-12T13:54:04.514Z,49.42
2023-04-12T13:56:32.472Z,49.34
2023-04-12T13:59:00.741Z,49.13
2023-04-12T14:01:28.637Z,49.03
2023-04-12T14:03:57.139Z,48.97
2023-04-12T14:06:25.192Z,48.80
2023-04-12T14:08:54.629Z,48.75
2023-04-12T14:11:24.872Z,48.75
2023-04-12T14:13:52.894Z,48.78
2023-04-12T14:16:21.162Z,48.84
2023-04-12T14:18:49.352Z,48.77
2023-04-12T14:21:17.842Z,48.46
2023-04-12T14:23:45.829Z,48.36
2023-04-12T14:26:17.170Z,48.19
2023-04-12T14:28:45.058Z,47.97
2023-04-12T14:31:14.970Z,47.87
2023-04-12T14:33:43.183Z,47.77
2023-04-12T14:36:13.047Z,47.43
2023-04-12T14:38:42.057Z,47.41
2023-04-12T14:41:13.995Z,47.08
2023-04-12T14:43:45.842Z,47.10
2023-04-12T14:46:14.219Z,47.13
2023-04-12T14:48:42.526Z,47.48
2023-04-12T14:51:10.470Z,47.45
2023-04-12T14:53:38.436Z,47.55
2023-04-12T14:56:17.106Z,47.63
2023-04-12T14:58:46.474Z,47.48
2023-04-12T15:01:14.436Z,47.54
2023-04-12T15:03:42.864Z,47.51
2023-04-12T15:06:11.231Z,47.40
2023-04-12T15:08:43.009Z,47.45
2023-04-12T15:11:11.902Z,47.10
2023-04-12T15:13:44.379Z,46.68
2023-04-12T15:16:15.065Z,46.50
2023-04-12T15:18:42.978Z,46.53
2023-04-12T15:21:11.947Z,46.57
2023-04-12T15:23:42.565Z,46.49
2023-04-12T15:26:10.682Z,46.22
2023-04-12T15:28:39.333Z,45.96
2023-04-12T15:31:08.665Z,46.17
2023-04-12T15:33:37.899Z,45.84
2023-04-12T15:36:06.640Z,45.88
2023-04-12T15:38:42.273Z,45.84
2023-04-12T15:41:10.577Z,45.75
2023-04-12T15:43:38.653Z,45.79
2023-04-12T15:46:07.274Z,45.58
2023-04-12T15:48:38.723Z,45.74
2023-04-12T15:51:08.413Z,45.62
2023-04-12T15:53:36.314Z,45.49
2023-04-12T15:56:04.511Z,45.66
2023-04-12T15:58:32.502Z,45.71
2023-04-12T16:01:00.431Z,45.75
2023-04-12T16:03:28.927Z,45.78
2023-04-12T16:05:58.241Z,45.57
2023-04-12T16:08:28.935Z,45.48
2023-04-12T16:10:56.896Z,45.66
2023-04-12T16:13:24.860Z,45.53
2023-04-12T16:15:55.860Z,45.93
2023-04-12T16:18:31.405Z,45.58
2023-04-12T16:20:59.885Z,45.47
2023-04-12T16:23:29.587Z,45.81
2023-04-12T16:25:59.884Z,45.54
2023-04-12T16:28:28.115Z,45.45
2023-04-12T16:30:56.525Z,45.09
2023-04-12T16:33:24.441Z,45.42
2023-04-12T16:35:52.250Z,45.41
2023-04-12T16:38:20.109Z,44.92
2023-04-12T16:40:49.384Z,44.86
2023-04-12T16:43:17.748Z,45.27
2023-04-12T16:45:49.303Z,45.14
2023-04-12T16:48:17.413Z,44.94
2023-04-12T16:50:47.419Z,45.47
2023-04-12T16:53:16.415Z,45.42
2023-04-12T16:55:47.222Z,45.50
2023-04-12T16:58:17.049Z,45.01
2023-04-12T17:00:45.470Z,45.55
2023-04-12T17:03:14.116Z,45.36
2023-04-12T17:05:42.373Z,45.23
2023-04-12T17:08:10.544Z,45.33
2023-04-12T17:10:38.525Z,44.90
2023-04-12T17:13:06.401Z,44.75
2023-04-12T17:15:36.114Z,45.28
2023-04-12T17:18:06.207Z,44.96
2023-04-12T17:20:34.874Z,44.61
2023-04-12T17:23:03.152Z,45.38
2023-04-12T17:25:32.074Z,45.03
2023-04-12T17:28:00.611Z,44.85
2023-04-12T17:30:28.506Z,44.63
2023-04-12T17:33:01.001Z,45.36
2023-04-12T17:35:30.092Z,45.04
2023-04-12T17:37:58.123Z,44.75
2023-04-12T17:40:26.145Z,45.09
2023-04-12T17:42:54.112Z,45.10
2023-04-12T17:45:23.647Z,44.79
2023-04-12T17:47:51.665Z,45.29
2023-04-12T17:50:20.937Z,44.71
2023-04-12T17:52:48.991Z,45.07
2023-04-12T17:55:19.490Z,45.01
2023-04-12T17:57:47.357Z,44.90
2023-04-12T18:00:18.998Z,45.23
2023-04-12T18:02:47.679Z,45.03
2023-04-12T18:05:16.169Z,44.92
2023-04-12T18:07:45.372Z,45.29
2023-04-12T18:10:15.777Z,45.07
2023-04-12T18:12:45.064Z,44.80
2023-04-12T18:15:13.011Z,44.81
2023-04-12T18:17:41.391Z,45.10
2023-04-12T18:20:11.417Z,44.78
2023-04-12T18:22:40.006Z,45.10
2023-04-12T18:25:11.742Z,44.92
2023-04-12T18:27:39.751Z,45.23
2023-04-12T18:30:09.470Z,44.95
2023-04-12T18:32:37.555Z,45.09
2023-04-12T18:35:05.945Z,45.17
2023-04-12T18:37:33.818Z,45.17
2023-04-12T18:40:02.036Z,45.10
2023-04-12T18:42:31.251Z,45.01
2023-04-12T18:44:59.088Z,45.25
2023-04-12T18:47:27.515Z,45.11
2023-04-12T18:49:56.484Z,45.22
2023-04-12T18:52:24.529Z,45.33
2023-04-12T18:54:52.357Z,45.10
2023-04-12T18:57:20.121Z,45.33
2023-04-12T18:59:49.719Z,45.16
2023-04-12T19:02:18.294Z,45.58
2023-04-12T19:04:46.217Z,45.03
2023-04-12T19:07:14.714Z,45.47
2023-04-12T19:09:42.466Z,45.23
2023-04-12T19:12:10.339Z,45.29
2023-04-12T19:14:38.879Z,45.15
2023-04-12T19:17:08.369Z,45.75
2023-04-12T19:19:36.265Z,45.15
2023-04-12T19:22:04.191Z,45.27
2023-04-12T19:24:32.544Z,45.68
2023-04-12T19:27:01.387Z,45.52
2023-04-12T19:29:29.399Z,45.25
2023-04-12T19:31:58.156Z,45.27
2023-04-12T19:34:27.539Z,45.97
2023-04-12T19:36:55.676Z,45.46
2023-04-12T19:39:24.000Z,45.86
2023-04-12T19:41:52.572Z,45.59
2023-04-12T19:44:20.611Z,45.91
2023-04-12T19:46:48.470Z,45.59
2023-04-12T19:49:16.264Z,45.67
2023-04-12T19:51:46.206Z,45.94
2023-04-12T19:54:14.147Z,45.71
2023-04-12T19:56:42.647Z,45.70
2023-04-12T19:59:10.876Z,45.96
2023-04-12T20:01:47.894Z,45.77
2023-04-12T20:04:16.705Z,45.68
2023-04-12T20:06:46.142Z,45.92
2023-04-12T20:09:14.863Z,46.23
2023-04-12T20:11:42.861Z,46.40
2023-04-12T20:14:10.712Z,46.07
2023-04-12T20:16:42.707Z,46.09
2023-04-12T20:19:11.202Z,46.46
2023-04-12T20:21:39.387Z,46.28
2023-04-12T20:24:09.365Z,46.40
2023-04-12T20:26:37.459Z,46.25
2023-04-12T20:29:05.412Z,46.85
2023-04-12T20:31:33.699Z,46.64
2023-04-12T20:34:01.602Z,46.38
2023-04-12T20:36:29.790Z,46.62
2023-04-12T20:38:58.114Z,46.89
2023-04-12T20:41:28.066Z,46.84
2023-04-12T20:43:55.962Z,46.54
2023-04-12T20:46:25.948Z,46.73
2023-04-12T20:48:56.244Z,46.76
2023-04-12T20:51:24.845Z,46.98
2023-04-12T20:53:52.983Z,46.95
2023-04-12T20:56:20.894Z,47.02
2023-04-12T20:58:50.207Z,47.09
2023-04-12T21:01:18.792Z,46.98
2023-04-12T21:03:47.474Z,46.93
2023-04-12T21:06:15.818Z,47.10
2023-04-12T21:08:44.667Z,47.43
2023-04-12T21:11:12.501Z,47.14
2023-04-12T21:13:40.716Z,47.60
2023-04-12T21:16:14.574Z,47.22
2023-04-12T21:18:42.790Z,47.20
2023-04-12T21:21:10.665Z,47.37
2023-04-12T21:23:38.688Z,47.64
2023-04-12T21:26:07.162Z,47.70
2023-04-12T21:28:35.099Z,47.80
2023-04-12T21:31:04.193Z,47.66
2023-04-12T21:33:34.788Z,47.52
2023-04-12T21:36:02.886Z,47.49
2023-04-12T21:38:31.348Z,47.61
2023-04-12T21:41:06.186Z,47.73
2023-04-12T21:43:34.402Z,47.66
2023-04-12T21:46:02.275Z,47.97
2023-04-12T21:48:30.668Z,47.38
2023-04-12T21:50:59.813Z,48.02
2023-04-12T21:53:28.486Z,48.18
2023-04-12T21:55:56.379Z,47.76
2023-04-12T21:58:24.356Z,48.37
2023-04-12T22:00:52.551Z,47.98
2023-04-12T22:03:20.531Z,47.92
2023-04-12T22:06:00.840Z,48.15
2023-04-12T22:08:34.274Z,48.46
2023-04-12T22:11:02.353Z,48.22
2023-04-12T22:13:30.831Z,48.10
2023-04-12T22:16:00.829Z,48.15
2023-04-12T22:18:28.694Z,48.22
2023-04-12T22:20:57.814Z,48.42
2023-04-12T22:23:25.744Z,48.64
2023-04-12T22:25:58.639Z,48.53
2023-04-12T22:28:26.445Z,48.59
2023-04-12T22:30:57.146Z,48.35
2023-04-12T22:33:25.286Z,48.95
2023-04-12T22:35:53.066Z,48.61
2023-04-12T22:38:21.058Z,48.73
2023-04-12T22:40:48.879Z,48.69
2023-04-12T22:43:22.313Z,49.06
2023-04-12T22:45:53.947Z,48.92
2023-04-12T22:48:24.992Z,49.19
2023-04-12T22:50:54.563Z,48.91
2023-04-12T22:53:22.690Z,48.75
2023-04-12T22:55:50.522Z,48.87
2023-04-12T22:58:19.692Z,49.14
2023-04-12T23:00:49.354Z,49.16
2023-04-12T23:03:17.791Z,49.42
2023-04-12T23:05:45.905Z,49.10
2023-04-12T23:08:14.993Z,49.09
2023-04-12T23:10:43.260Z,49.42
2023-04-12T23:13:12.202Z,49.34
2023-04-12T23:15:42.759Z,49.88
2023-04-12T23:18:10.963Z,49.69
2023-04-12T23:20:40.305Z,49.73
2023-04-12T23:23:08.384Z,49.82
2023-04-12T23:25:39.942Z,49.31
2023-04-12T23:28:13.028Z,49.38
2023-04-12T23:30:44.139Z,49.98
2023-04-12T23:33:12.715Z,49.79
2023-04-12T23:35:42.495Z,50.08
2023-04-12T23:38:15.479Z,50.15
2023-04-12T23:40:44.203Z,50.18
2023-04-12T23:43:12.268Z,50.22
2023-04-12T23:45:40.152Z,50.43
2023-04-12T23:48:09.486Z,49.87
2023-04-12T23:50:37.730Z,50.22
2023-04-12T23:53:06.078Z,50.32
2023-04-12T23:55:34.126Z,50.14
2023-04-12T23:58:02.277Z,50.55
